sensor_id;sensor_type;location;lat;lon;timestamp;temperature;humidity
44487;DHT22;30191;50.908;6.962;2022-12-29T00:01:40;11.70;99.90
44487;DHT22;30191;50.908;6.962;2022-12-29T00:04:06;11.70;99.90
44487;DHT22;30191;50.908;6.962;2022-12-29T00:06:32;11.70;99.90
44487;DHT22;30191;50.908;6.962;2022-12-29T00:08:58;11.70;99.90
44487;DHT22;30191;50.908;6.962;2022-12-29T00:11:26;11.70;99.90
44487;DHT22;30191;50.908;6.962;2022-12-29T00:13:53;11.70;99.90
44487;DHT22;30191;50.908;6.962;2022-12-29T00:16:39;11.70;99.90
44487;DHT22;30191;50.908;6.962;2022-12-29T00:19:05;11.70;99.90
44487;DHT22;30191;50.908;6.962;2022-12-29T00:21:31;11.70;99.90
44487;DHT22;30191;50.908;6.962;2022-12-29T00:24:20;11.70;99.90
44487;DHT22;30191;50.908;6.962;2022-12-29T00:27:10;11.70;99.90
44487;DHT22;30191;50.908;6.962;2022-12-29T00:29:54;11.70;99.90
44487;DHT22;30191;50.908;6.962;2022-12-29T00:32:38;11.80;99.90
44487;DHT22;30191;50.908;6.962;2022-12-29T00:35:29;11.80;99.90
44487;DHT22;30191;50.908;6.962;2022-12-29T00:38:01;11.80;99.90
44487;DHT22;30191;50.908;6.962;2022-12-29T00:40:45;11.80;99.90
44487;DHT22;30191;50.908;6.962;2022-12-29T00:43:29;11.80;99.90
44487;DHT22;30191;50.908;6.962;2022-12-29T00:46:13;11.80;99.90
44487;DHT22;30191;50.908;6.962;2022-12-29T00:48:39;11.80;99.90
44487;DHT22;30191;50.908;6.962;2022-12-29T00:51:23;11.90;99.90
44487;DHT22;30191;50.908;6.962;2022-12-29T00:53:49;11.90;99.90
44487;DHT22;30191;50.908;6.962;2022-12-29T00:56:14;11.90;99.90
44487;DHT22;30191;50.908;6.962;2022-12-29T00:58:40;11.90;99.90
44487;DHT22;30191;50.908;6.962;2022-12-29T01:01:07;11.90;99.90
44487;DHT22;30191;50.908;6.962;2022-12-29T01:03:35;12.00;99.90
44487;DHT22;30191;50.908;6.962;2022-12-29T01:06:05;12.00;99.90
44487;DHT22;30191;50.908;6.962;2022-12-29T01:08:32;12.00;99.90
44487;DHT22;30191;50.908;6.962;2022-12-29T01:11:15;12.00;99.90
44487;DHT22;30191;50.908;6.962;2022-12-29T01:13:41;12.00;99.90
44487;DHT22;30191;50.908;6.962;2022-12-29T01:16:09;12.00;99.90
44487;DHT22;30191;50.908;6.962;2022-12-29T01:18:34;12.00;99.90
44487;DHT22;30191;50.908;6.962;2022-12-29T01:21:01;12.00;99.90
44487;DHT22;30191;50.908;6.962;2022-12-29T01:23:28;12.00;99.90
44487;DHT22;30191;50.908;6.962;2022-12-29T01:25:54;12.00;99.90
44487;DHT22;30191;50.908;6.962;2022-12-29T01:28:20;12.00;99.90
44487;DHT22;30191;50.908;6.962;2022-12-29T01:30:46;12.00;99.90
44487;DHT22;30191;50.908;6.962;2022-12-29T01:33:11;12.10;99.90
44487;DHT22;30191;50.908;6.962;2022-12-29T01:35:37;12.10;99.90
44487;DHT22;30191;50.908;6.962;2022-12-29T01:38:02;12.10;99.90
44487;DHT22;30191;50.908;6.962;2022-12-29T01:40:28;12.20;99.90
44487;DHT22;30191;50.908;6.962;2022-12-29T01:42:54;12.20;99.90
44487;DHT22;30191;50.908;6.962;2022-12-29T01:45:20;12.20;99.90
44487;DHT22;30191;50.908;6.962;2022-12-29T01:47:50;12.20;99.90
44487;DHT22;30191;50.908;6.962;2022-12-29T01:50:19;12.30;99.90
44487;DHT22;30191;50.908;6.962;2022-12-29T01:52:58;12.30;99.90
44487;DHT22;30191;50.908;6.962;2022-12-29T01:55:30;12.30;99.90
44487;DHT22;30191;50.908;6.962;2022-12-29T01:57:59;12.30;99.90
44487;DHT22;30191;50.908;6.962;2022-12-29T02:00:26;12.40;99.90
44487;DHT22;30191;50.908;6.962;2022-12-29T02:02:53;12.40;99.90
44487;DHT22;30191;50.908;6.962;2022-12-29T02:05:42;12.40;99.90
44487;DHT22;30191;50.908;6.962;2022-12-29T02:08:11;12.40;99.90
44487;DHT22;30191;50.908;6.962;2022-12-29T02:10:38;12.40;99.90
44487;DHT22;30191;50.908;6.962;2022-12-29T02:13:04;12.40;99.90
44487;DHT22;30191;50.908;6.962;2022-12-29T02:15:41;12.40;99.90
44487;DHT22;30191;50.908;6.962;2022-12-29T02:19:09;12.40;99.90
44487;DHT22;30191;50.908;6.962;2022-12-29T02:23:58;12.40;99.90
44487;DHT22;30191;50.908;6.962;2022-12-29T02:31:54;12.40;99.90
44487;DHT22;30191;50.908;6.962;2022-12-29T02:37:23;12.40;99.90
44487;DHT22;30191;50.908;6.962;2022-12-29T02:40:17;12.40;99.90
44487;DHT22;30191;50.908;6.962;2022-12-29T02:43:05;12.40;99.90
44487;DHT22;30191;50.908;6.962;2022-12-29T02:45:41;12.40;99.90
44487;DHT22;30191;50.908;6.962;2022-12-29T02:48:32;12.40;99.90
44487;DHT22;30191;50.908;6.962;2022-12-29T02:51:52;12.40;99.90
44487;DHT22;30191;50.908;6.962;2022-12-29T02:53:58;12.40;99.90
44487;DHT22;30191;50.908;6.962;2022-12-29T02:56:42;12.40;99.90
44487;DHT22;30191;50.908;6.962;2022-12-29T02:59:08;12.40;99.90
44487;DHT22;30191;50.908;6.962;2022-12-29T03:06:54;12.40;99.90
44487;DHT22;30191;50.908;6.962;2022-12-29T03:12:33;12.40;99.90
44487;DHT22;30191;50.908;6.962;2022-12-29T03:15:40;12.30;99.90
44487;DHT22;30191;50.908;6.962;2022-12-29T03:21:08;12.30;99.90
44487;DHT22;30191;50.908;6.962;2022-12-29T03:23:36;12.30;99.90
44487;DHT22;30191;50.908;6.962;2022-12-29T03:26:06;12.30;99.90
44487;DHT22;30191;50.908;6.962;2022-12-29T03:28:39;12.30;99.90
44487;DHT22;30191;50.908;6.962;2022-12-29T03:31:08;12.30;99.90
44487;DHT22;30191;50.908;6.962;2022-12-29T03:33:37;12.30;99.90
44487;DHT22;30191;50.908;6.962;2022-12-29T03:36:06;12.30;99.90
44487;DHT22;30191;50.908;6.962;2022-12-29T03:41:13;12.30;99.90
44487;DHT22;30191;50.908;6.962;2022-12-29T03:43:39;12.30;99.90
44487;DHT22;30191;50.908;6.962;2022-12-29T03:46:05;12.30;99.90
44487;DHT22;30191;50.908;6.962;2022-12-29T03:48:31;12.30;99.90
44487;DHT22;30191;50.908;6.962;2022-12-29T03:50:58;12.30;99.90
44487;DHT22;30191;50.908;6.962;2022-12-29T03:53:24;12.30;99.90
44487;DHT22;30191;50.908;6.962;2022-12-29T03:55:50;12.30;99.90
44487;DHT22;30191;50.908;6.962;2022-12-29T03:58:15;12.30;99.90
44487;DHT22;30191;50.908;6.962;2022-12-29T04:00:41;12.30;99.90
44487;DHT22;30191;50.908;6.962;2022-12-29T04:03:07;12.30;99.90
44487;DHT22;30191;50.908;6.962;2022-12-29T04:05:32;12.30;99.90
44487;DHT22;30191;50.908;6.962;2022-12-29T04:07:58;12.20;99.90
44487;DHT22;30191;50.908;6.962;2022-12-29T04:10:24;12.20;99.90
44487;DHT22;30191;50.908;6.962;2022-12-29T04:12:49;12.20;99.90
44487;DHT22;30191;50.908;6.962;2022-12-29T04:15:15;12.20;99.90
44487;DHT22;30191;50.908;6.962;2022-12-29T04:17:41;12.20;99.90
44487;DHT22;30191;50.908;6.962;2022-12-29T04:20:07;12.20;99.90
44487;DHT22;30191;50.908;6.962;2022-12-29T04:23:01;12.20;99.90
44487;DHT22;30191;50.908;6.962;2022-12-29T04:25:27;12.20;99.90
44487;DHT22;30191;50.908;6.962;2022-12-29T04:27:52;12.20;99.90
44487;DHT22;30191;50.908;6.962;2022-12-29T04:30:18;12.20;99.90
44487;DHT22;30191;50.908;6.962;2022-12-29T04:32:44;12.20;99.90
44487;DHT22;30191;50.908;6.962;2022-12-29T04:35:09;12.20;99.90
44487;DHT22;30191;50.908;6.962;2022-12-29T04:37:35;12.10;99.90
44487;DHT22;30191;50.908;6.962;2022-12-29T04:40:00;12.20;99.90
44487;DHT22;30191;50.908;6.962;2022-12-29T04:42:26;12.20;99.90
44487;DHT22;30191;50.908;6.962;2022-12-29T04:44:52;12.20;99.90
44487;DHT22;30191;50.908;6.962;2022-12-29T04:47:17;12.20;99.90
44487;DHT22;30191;50.908;6.962;2022-12-29T04:49:43;12.20;99.90
44487;DHT22;30191;50.908;6.962;2022-12-29T04:52:09;12.20;99.90
44487;DHT22;30191;50.908;6.962;2022-12-29T04:54:34;12.20;99.90
44487;DHT22;30191;50.908;6.962;2022-12-29T04:57:00;12.30;99.90
44487;DHT22;30191;50.908;6.962;2022-12-29T04:59:26;12.30;99.90
44487;DHT22;30191;50.908;6.962;2022-12-29T05:01:51;12.30;99.90
44487;DHT22;30191;50.908;6.962;2022-12-29T05:04:17;12.30;99.90
44487;DHT22;30191;50.908;6.962;2022-12-29T05:06:42;12.40;99.90
44487;DHT22;30191;50.908;6.962;2022-12-29T05:09:08;12.30;99.90
44487;DHT22;30191;50.908;6.962;2022-12-29T05:11:34;12.30;99.90
44487;DHT22;30191;50.908;6.962;2022-12-29T05:14:00;12.30;99.90
44487;DHT22;30191;50.908;6.962;2022-12-29T05:16:25;12.30;99.90
44487;DHT22;30191;50.908;6.962;2022-12-29T05:18:51;12.30;99.90
44487;DHT22;30191;50.908;6.962;2022-12-29T05:21:16;12.30;99.90
44487;DHT22;30191;50.908;6.962;2022-12-29T05:23:42;12.30;99.90
44487;DHT22;30191;50.908;6.962;2022-12-29T05:26:08;12.30;99.90
44487;DHT22;30191;50.908;6.962;2022-12-29T05:28:33;12.30;99.90
44487;DHT22;30191;50.908;6.962;2022-12-29T05:30:59;12.30;99.90
44487;DHT22;30191;50.908;6.962;2022-12-29T05:33:25;12.30;99.90
44487;DHT22;30191;50.908;6.962;2022-12-29T05:35:50;12.30;99.90
44487;DHT22;30191;50.908;6.962;2022-12-29T05:38:16;12.30;99.90
44487;DHT22;30191;50.908;6.962;2022-12-29T05:40:43;12.30;99.90
44487;DHT22;30191;50.908;6.962;2022-12-29T05:43:08;12.30;99.90
44487;DHT22;30191;50.908;6.962;2022-12-29T05:45:36;12.30;99.90
44487;DHT22;30191;50.908;6.962;2022-12-29T05:48:02;12.30;99.90
44487;DHT22;30191;50.908;6.962;2022-12-29T05:50:27;12.30;99.90
44487;DHT22;30191;50.908;6.962;2022-12-29T05:52:53;12.40;99.90
44487;DHT22;30191;50.908;6.962;2022-12-29T05:55:19;12.40;99.90
44487;DHT22;30191;50.908;6.962;2022-12-29T05:57:44;12.40;99.90
44487;DHT22;30191;50.908;6.962;2022-12-29T06:00:11;12.40;99.90
44487;DHT22;30191;50.908;6.962;2022-12-29T06:02:36;12.40;99.90
44487;DHT22;30191;50.908;6.962;2022-12-29T06:05:02;12.40;99.90
44487;DHT22;30191;50.908;6.962;2022-12-29T06:07:28;12.40;99.90
44487;DHT22;30191;50.908;6.962;2022-12-29T06:09:54;12.40;99.90
44487;DHT22;30191;50.908;6.962;2022-12-29T06:12:19;12.40;99.90
44487;DHT22;30191;50.908;6.962;2022-12-29T06:14:45;12.40;99.90
44487;DHT22;30191;50.908;6.962;2022-12-29T06:17:10;12.40;99.90
44487;DHT22;30191;50.908;6.962;2022-12-29T06:19:36;12.50;99.90
44487;DHT22;30191;50.908;6.962;2022-12-29T06:22:02;12.40;99.90
44487;DHT22;30191;50.908;6.962;2022-12-29T06:24:28;12.50;99.90
44487;DHT22;30191;50.908;6.962;2022-12-29T06:26:53;12.50;99.90
44487;DHT22;30191;50.908;6.962;2022-12-29T06:29:19;12.50;99.90
44487;DHT22;30191;50.908;6.962;2022-12-29T06:31:46;12.50;99.90
44487;DHT22;30191;50.908;6.962;2022-12-29T06:34:12;12.50;99.90
44487;DHT22;30191;50.908;6.962;2022-12-29T06:36:38;12.50;99.90
44487;DHT22;30191;50.908;6.962;2022-12-29T06:39:04;12.40;99.90
44487;DHT22;30191;50.908;6.962;2022-12-29T06:41:30;12.40;99.90
44487;DHT22;30191;50.908;6.962;2022-12-29T06:43:55;12.40;99.90
44487;DHT22;30191;50.908;6.962;2022-12-29T06:46:21;12.40;99.90
44487;DHT22;30191;50.908;6.962;2022-12-29T06:48:47;12.40;99.90
44487;DHT22;30191;50.908;6.962;2022-12-29T06:51:12;12.40;99.90
44487;DHT22;30191;50.908;6.962;2022-12-29T06:53:38;12.40;99.90
44487;DHT22;30191;50.908;6.962;2022-12-29T06:56:04;12.40;99.90
44487;DHT22;30191;50.908;6.962;2022-12-29T06:58:30;12.40;99.90
44487;DHT22;30191;50.908;6.962;2022-12-29T07:00:55;12.40;99.90
44487;DHT22;30191;50.908;6.962;2022-12-29T07:03:21;12.40;99.90
44487;DHT22;30191;50.908;6.962;2022-12-29T07:05:47;12.40;99.90
44487;DHT22;30191;50.908;6.962;2022-12-29T07:08:12;12.40;99.90
44487;DHT22;30191;50.908;6.962;2022-12-29T07:10:38;12.40;99.90
44487;DHT22;30191;50.908;6.962;2022-12-29T07:13:04;12.40;99.90
44487;DHT22;30191;50.908;6.962;2022-12-29T07:15:29;12.40;99.90
44487;DHT22;30191;50.908;6.962;2022-12-29T07:17:55;12.40;99.90
44487;DHT22;30191;50.908;6.962;2022-12-29T07:20:21;12.40;99.90
44487;DHT22;30191;50.908;6.962;2022-12-29T07:22:46;12.40;99.90
44487;DHT22;30191;50.908;6.962;2022-12-29T07:25:12;12.40;99.90
44487;DHT22;30191;50.908;6.962;2022-12-29T07:27:38;12.40;99.90
44487;DHT22;30191;50.908;6.962;2022-12-29T07:30:04;12.40;99.90
44487;DHT22;30191;50.908;6.962;2022-12-29T07:32:33;12.40;99.90
44487;DHT22;30191;50.908;6.962;2022-12-29T07:34:59;12.40;99.90
44487;DHT22;30191;50.908;6.962;2022-12-29T07:37:24;12.30;99.90
44487;DHT22;30191;50.908;6.962;2022-12-29T07:39:50;12.30;99.90
44487;DHT22;30191;50.908;6.962;2022-12-29T07:42:16;12.30;99.90
44487;DHT22;30191;50.908;6.962;2022-12-29T07:44:41;12.30;99.90
44487;DHT22;30191;50.908;6.962;2022-12-29T07:47:07;12.30;99.90
44487;DHT22;30191;50.908;6.962;2022-12-29T07:49:33;12.30;99.90
44487;DHT22;30191;50.908;6.962;2022-12-29T07:51:58;12.30;99.90
44487;DHT22;30191;50.908;6.962;2022-12-29T07:54:24;12.30;99.90
44487;DHT22;30191;50.908;6.962;2022-12-29T07:56:50;12.30;99.90
44487;DHT22;30191;50.908;6.962;2022-12-29T07:59:15;12.30;99.90
44487;DHT22;30191;50.908;6.962;2022-12-29T08:01:41;12.30;99.90
44487;DHT22;30191;50.908;6.962;2022-12-29T08:04:07;12.30;99.90
44487;DHT22;30191;50.908;6.962;2022-12-29T08:06:32;12.30;99.90
44487;DHT22;30191;50.908;6.962;2022-12-29T08:08:58;12.30;99.90
44487;DHT22;30191;50.908;6.962;2022-12-29T08:11:25;12.30;99.90
44487;DHT22;30191;50.908;6.962;2022-12-29T08:13:51;12.30;99.90
44487;DHT22;30191;50.908;6.962;2022-12-29T08:16:17;12.30;99.90
44487;DHT22;30191;50.908;6.962;2022-12-29T08:18:42;12.30;99.90
44487;DHT22;30191;50.908;6.962;2022-12-29T08:21:08;12.30;99.90
44487;DHT22;30191;50.908;6.962;2022-12-29T08:23:34;12.30;99.90
44487;DHT22;30191;50.908;6.962;2022-12-29T08:26:04;12.30;99.90
44487;DHT22;30191;50.908;6.962;2022-12-29T08:28:31;12.30;99.90
44487;DHT22;30191;50.908;6.962;2022-12-29T08:31:01;12.30;99.90
44487;DHT22;30191;50.908;6.962;2022-12-29T08:33:27;12.30;99.90
44487;DHT22;30191;50.908;6.962;2022-12-29T08:35:58;12.30;99.90
44487;DHT22;30191;50.908;6.962;2022-12-29T08:38:23;12.20;99.90
44487;DHT22;30191;50.908;6.962;2022-12-29T08:40:51;12.30;99.90
44487;DHT22;30191;50.908;6.962;2022-12-29T08:43:16;12.20;99.90
44487;DHT22;30191;50.908;6.962;2022-12-29T08:45:42;12.20;99.90
44487;DHT22;30191;50.908;6.962;2022-12-29T08:48:08;12.20;99.90
44487;DHT22;30191;50.908;6.962;2022-12-29T08:50:33;12.20;99.90
44487;DHT22;30191;50.908;6.962;2022-12-29T08:52:59;12.20;99.90
44487;DHT22;30191;50.908;6.962;2022-12-29T08:55:26;12.20;99.90
44487;DHT22;30191;50.908;6.962;2022-12-29T08:57:51;12.20;99.90
44487;DHT22;30191;50.908;6.962;2022-12-29T09:00:17;12.20;99.90
44487;DHT22;30191;50.908;6.962;2022-12-29T09:02:43;12.10;99.90
44487;DHT22;30191;50.908;6.962;2022-12-29T09:05:09;12.20;99.90
44487;DHT22;30191;50.908;6.962;2022-12-29T09:07:35;12.20;99.90
44487;DHT22;30191;50.908;6.962;2022-12-29T09:10:01;12.20;99.90
44487;DHT22;30191;50.908;6.962;2022-12-29T09:12:27;12.20;99.90
44487;DHT22;30191;50.908;6.962;2022-12-29T09:14:53;12.20;99.90
44487;DHT22;30191;50.908;6.962;2022-12-29T09:17:18;12.20;99.90
44487;DHT22;30191;50.908;6.962;2022-12-29T09:20:03;12.20;99.90
44487;DHT22;30191;50.908;6.962;2022-12-29T09:22:29;12.20;99.90
44487;DHT22;30191;50.908;6.962;2022-12-29T09:24:54;12.20;99.90
44487;DHT22;30191;50.908;6.962;2022-12-29T09:27:20;12.20;99.90
44487;DHT22;30191;50.908;6.962;2022-12-29T09:29:46;12.30;99.90
44487;DHT22;30191;50.908;6.962;2022-12-29T09:32:11;12.30;99.90
44487;DHT22;30191;50.908;6.962;2022-12-29T09:34:37;12.30;99.90
44487;DHT22;30191;50.908;6.962;2022-12-29T09:37:03;12.30;99.90
44487;DHT22;30191;50.908;6.962;2022-12-29T09:39:28;12.30;99.90
44487;DHT22;30191;50.908;6.962;2022-12-29T09:47:10;12.40;99.90
44487;DHT22;30191;50.908;6.962;2022-12-29T09:52:23;12.40;99.90
44487;DHT22;30191;50.908;6.962;2022-12-29T09:55:04;12.40;99.90
44487;DHT22;30191;50.908;6.962;2022-12-29T09:57:56;12.40;99.90
44487;DHT22;30191;50.908;6.962;2022-12-29T10:03:17;12.50;99.90
44487;DHT22;30191;50.908;6.962;2022-12-29T10:05:48;12.50;99.90
44487;DHT22;30191;50.908;6.962;2022-12-29T10:10:55;12.50;99.90
44487;DHT22;30191;50.908;6.962;2022-12-29T10:17:09;12.50;99.90
44487;DHT22;30191;50.908;6.962;2022-12-29T10:19:18;12.50;99.90
44487;DHT22;30191;50.908;6.962;2022-12-29T10:24:49;12.60;99.90
44487;DHT22;30191;50.908;6.962;2022-12-29T10:27:16;12.60;99.90
44487;DHT22;30191;50.908;6.962;2022-12-29T10:30:03;12.60;99.90
44487;DHT22;30191;50.908;6.962;2022-12-29T10:32:39;12.60;99.90
44487;DHT22;30191;50.908;6.962;2022-12-29T10:35:35;12.60;99.90
44487;DHT22;30191;50.908;6.962;2022-12-29T10:43:51;12.70;99.90
44487;DHT22;30191;50.908;6.962;2022-12-29T10:46:30;12.70;99.90
44487;DHT22;30191;50.908;6.962;2022-12-29T10:48:59;12.70;99.90
44487;DHT22;30191;50.908;6.962;2022-12-29T10:51:31;12.80;99.90
44487;DHT22;30191;50.908;6.962;2022-12-29T10:54:21;12.80;99.90
44487;DHT22;30191;50.908;6.962;2022-12-29T10:56:53;12.80;99.90
44487;DHT22;30191;50.908;6.962;2022-12-29T10:59:25;12.80;99.90
44487;DHT22;30191;50.908;6.962;2022-12-29T11:04:59;12.90;99.90
44487;DHT22;30191;50.908;6.962;2022-12-29T11:07:31;12.90;99.90
44487;DHT22;30191;50.908;6.962;2022-12-29T11:10:17;12.90;99.90
44487;DHT22;30191;50.908;6.962;2022-12-29T11:12:56;13.00;99.90
44487;DHT22;30191;50.908;6.962;2022-12-29T11:15:22;13.00;99.90
44487;DHT22;30191;50.908;6.962;2022-12-29T11:17:53;13.00;99.90
44487;DHT22;30191;50.908;6.962;2022-12-29T11:20:36;13.00;99.90
44487;DHT22;30191;50.908;6.962;2022-12-29T11:23:03;13.10;99.90
44487;DHT22;30191;50.908;6.962;2022-12-29T11:25:29;13.00;99.90
44487;DHT22;30191;50.908;6.962;2022-12-29T11:28:02;13.00;99.90
44487;DHT22;30191;50.908;6.962;2022-12-29T11:30:31;13.00;99.90
44487;DHT22;30191;50.908;6.962;2022-12-29T11:32:57;13.00;99.90
44487;DHT22;30191;50.908;6.962;2022-12-29T11:35:32;13.00;99.90
44487;DHT22;30191;50.908;6.962;2022-12-29T11:37:58;13.10;99.90
44487;DHT22;30191;50.908;6.962;2022-12-29T11:40:25;13.10;99.90
44487;DHT22;30191;50.908;6.962;2022-12-29T11:42:54;13.00;99.90
44487;DHT22;30191;50.908;6.962;2022-12-29T11:45:25;13.00;99.90
44487;DHT22;30191;50.908;6.962;2022-12-29T11:47:57;13.00;99.90
44487;DHT22;30191;50.908;6.962;2022-12-29T11:50:28;12.90;99.90
44487;DHT22;30191;50.908;6.962;2022-12-29T11:53:08;12.90;99.90
44487;DHT22;30191;50.908;6.962;2022-12-29T11:55:39;12.90;99.90
44487;DHT22;30191;50.908;6.962;2022-12-29T11:58:05;12.90;99.90
44487;DHT22;30191;50.908;6.962;2022-12-29T12:00:34;12.90;99.90
44487;DHT22;30191;50.908;6.962;2022-12-29T12:05:49;12.90;99.90
44487;DHT22;30191;50.908;6.962;2022-12-29T12:11:15;12.90;99.90
44487;DHT22;30191;50.908;6.962;2022-12-29T12:13:53;13.00;99.90
44487;DHT22;30191;50.908;6.962;2022-12-29T12:16:29;13.00;99.90
44487;DHT22;30191;50.908;6.962;2022-12-29T12:19:11;13.00;99.90
44487;DHT22;30191;50.908;6.962;2022-12-29T12:21:41;12.90;99.90
44487;DHT22;30191;50.908;6.962;2022-12-29T12:30:13;12.80;99.90
44487;DHT22;30191;50.908;6.962;2022-12-29T12:35:21;12.90;99.90
44487;DHT22;30191;50.908;6.962;2022-12-29T12:43:21;12.80;99.90
44487;DHT22;30191;50.908;6.962;2022-12-29T12:51:20;13.00;99.90
44487;DHT22;30191;50.908;6.962;2022-12-29T12:54:25;13.10;99.90
44487;DHT22;30191;50.908;6.962;2022-12-29T13:00:09;13.00;99.90
44487;DHT22;30191;50.908;6.962;2022-12-29T13:05:34;13.40;99.90
44487;DHT22;30191;50.908;6.962;2022-12-29T13:11:47;13.60;99.90
44487;DHT22;30191;50.908;6.962;2022-12-29T13:13:55;13.40;99.90
44487;DHT22;30191;50.908;6.962;2022-12-29T13:16:40;13.30;99.90
44487;DHT22;30191;50.908;6.962;2022-12-29T13:30:20;12.70;99.90
44487;DHT22;30191;50.908;6.962;2022-12-29T13:33:07;12.60;99.90
44487;DHT22;30191;50.908;6.962;2022-12-29T13:38:18;12.60;99.90
44487;DHT22;30191;50.908;6.962;2022-12-29T13:40:49;12.60;99.90
44487;DHT22;30191;50.908;6.962;2022-12-29T13:43:16;12.50;99.90
44487;DHT22;30191;50.908;6.962;2022-12-29T13:45:44;12.50;99.90
44487;DHT22;30191;50.908;6.962;2022-12-29T13:48:21;12.50;99.90
44487;DHT22;30191;50.908;6.962;2022-12-29T13:50:57;12.50;99.90
44487;DHT22;30191;50.908;6.962;2022-12-29T13:54:00;12.50;99.90
44487;DHT22;30191;50.908;6.962;2022-12-29T13:56:45;12.50;99.90
44487;DHT22;30191;50.908;6.962;2022-12-29T14:04:25;12.40;99.90
44487;DHT22;30191;50.908;6.962;2022-12-29T14:07:03;12.40;99.90
44487;DHT22;30191;50.908;6.962;2022-12-29T14:09:45;12.40;99.90
44487;DHT22;30191;50.908;6.962;2022-12-29T14:17:37;12.20;99.90
44487;DHT22;30191;50.908;6.962;2022-12-29T14:20:06;12.20;99.90
44487;DHT22;30191;50.908;6.962;2022-12-29T14:23:00;12.20;99.90
44487;DHT22;30191;50.908;6.962;2022-12-29T14:28:30;12.00;99.90
44487;DHT22;30191;50.908;6.962;2022-12-29T14:31:04;12.00;99.90
44487;DHT22;30191;50.908;6.962;2022-12-29T14:33:32;12.00;99.90
44487;DHT22;30191;50.908;6.962;2022-12-29T14:36:37;12.10;99.90
44487;DHT22;30191;50.908;6.962;2022-12-29T14:39:03;12.00;99.90
44487;DHT22;30191;50.908;6.962;2022-12-29T14:41:38;12.00;99.90
44487;DHT22;30191;50.908;6.962;2022-12-29T14:49:27;11.90;99.90
44487;DHT22;30191;50.908;6.962;2022-12-29T14:52:05;11.90;99.90
44487;DHT22;30191;50.908;6.962;2022-12-29T14:57:02;11.80;99.90
44487;DHT22;30191;50.908;6.962;2022-12-29T14:59:30;11.90;99.90
44487;DHT22;30191;50.908;6.962;2022-12-29T15:01:58;11.90;99.90
44487;DHT22;30191;50.908;6.962;2022-12-29T15:04:34;11.90;99.90
44487;DHT22;30191;50.908;6.962;2022-12-29T15:07:02;11.90;99.90
44487;DHT22;30191;50.908;6.962;2022-12-29T15:12:15;11.90;99.90
44487;DHT22;30191;50.908;6.962;2022-12-29T15:14:54;12.00;99.90
44487;DHT22;30191;50.908;6.962;2022-12-29T15:19:49;11.90;99.90
44487;DHT22;30191;50.908;6.962;2022-12-29T15:22:15;11.80;99.90
44487;DHT22;30191;50.908;6.962;2022-12-29T15:24:42;11.80;99.90
44487;DHT22;30191;50.908;6.962;2022-12-29T15:27:13;11.80;99.90
44487;DHT22;30191;50.908;6.962;2022-12-29T15:29:40;11.70;99.90
44487;DHT22;30191;50.908;6.962;2022-12-29T15:34:42;11.60;99.90
44487;DHT22;30191;50.908;6.962;2022-12-29T15:37:09;11.50;99.90
44487;DHT22;30191;50.908;6.962;2022-12-29T15:39:35;11.50;99.90
44487;DHT22;30191;50.908;6.962;2022-12-29T15:42:20;11.50;99.90
44487;DHT22;30191;50.908;6.962;2022-12-29T15:44:49;11.50;99.90
44487;DHT22;30191;50.908;6.962;2022-12-29T15:47:18;11.40;99.90
44487;DHT22;30191;50.908;6.962;2022-12-29T15:49:47;11.40;99.90
44487;DHT22;30191;50.908;6.962;2022-12-29T15:52:17;11.40;99.90
44487;DHT22;30191;50.908;6.962;2022-12-29T15:54:44;11.40;99.90
44487;DHT22;30191;50.908;6.962;2022-12-29T15:57:23;11.40;99.90
44487;DHT22;30191;50.908;6.962;2022-12-29T15:59:50;11.40;99.90
44487;DHT22;30191;50.908;6.962;2022-12-29T16:02:16;11.30;99.90
44487;DHT22;30191;50.908;6.962;2022-12-29T16:04:42;11.30;99.90
44487;DHT22;30191;50.908;6.962;2022-12-29T16:07:31;11.30;99.90
44487;DHT22;30191;50.908;6.962;2022-12-29T16:09:59;11.20;99.90
44487;DHT22;30191;50.908;6.962;2022-12-29T16:12:34;11.20;99.90
44487;DHT22;30191;50.908;6.962;2022-12-29T16:15:05;11.10;99.90
44487;DHT22;30191;50.908;6.962;2022-12-29T16:17:32;11.10;99.90
44487;DHT22;30191;50.908;6.962;2022-12-29T16:19:59;11.10;99.90
44487;DHT22;30191;50.908;6.962;2022-12-29T16:22:33;11.10;99.90
44487;DHT22;30191;50.908;6.962;2022-12-29T16:25:23;11.10;99.90
44487;DHT22;30191;50.908;6.962;2022-12-29T16:27:50;11.10;99.90
44487;DHT22;30191;50.908;6.962;2022-12-29T16:30:27;11.10;99.90
44487;DHT22;30191;50.908;6.962;2022-12-29T16:32:58;11.00;99.90
44487;DHT22;30191;50.908;6.962;2022-12-29T16:35:34;11.00;99.90
44487;DHT22;30191;50.908;6.962;2022-12-29T16:38:20;11.00;99.90
44487;DHT22;30191;50.908;6.962;2022-12-29T16:40:53;11.00;99.90
44487;DHT22;30191;50.908;6.962;2022-12-29T16:43:25;11.00;99.90
44487;DHT22;30191;50.908;6.962;2022-12-29T16:48:23;11.00;99.90
44487;DHT22;30191;50.908;6.962;2022-12-29T16:50:51;11.00;99.90
44487;DHT22;30191;50.908;6.962;2022-12-29T16:53:25;10.90;99.90
44487;DHT22;30191;50.908;6.962;2022-12-29T16:55:53;10.90;99.90
44487;DHT22;30191;50.908;6.962;2022-12-29T16:58:22;10.90;99.90
44487;DHT22;30191;50.908;6.962;2022-12-29T17:00:48;10.90;99.90
44487;DHT22;30191;50.908;6.962;2022-12-29T17:03:15;10.80;99.90
44487;DHT22;30191;50.908;6.962;2022-12-29T17:05:41;10.80;99.90
44487;DHT22;30191;50.908;6.962;2022-12-29T17:08:20;10.80;99.90
44487;DHT22;30191;50.908;6.962;2022-12-29T17:10:53;10.80;99.90
44487;DHT22;30191;50.908;6.962;2022-12-29T17:13:38;10.80;99.90
44487;DHT22;30191;50.908;6.962;2022-12-29T17:16:05;10.80;99.90
44487;DHT22;30191;50.908;6.962;2022-12-29T17:18:33;10.80;99.90
44487;DHT22;30191;50.908;6.962;2022-12-29T17:20:59;10.80;99.90
44487;DHT22;30191;50.908;6.962;2022-12-29T17:23:25;10.80;99.90
44487;DHT22;30191;50.908;6.962;2022-12-29T17:25:52;10.80;99.90
44487;DHT22;30191;50.908;6.962;2022-12-29T17:30:46;10.80;99.90
44487;DHT22;30191;50.908;6.962;2022-12-29T17:33:17;10.80;99.90
44487;DHT22;30191;50.908;6.962;2022-12-29T17:35:44;10.80;99.90
44487;DHT22;30191;50.908;6.962;2022-12-29T17:38:19;10.80;99.90
44487;DHT22;30191;50.908;6.962;2022-12-29T17:40:45;10.80;99.90
44487;DHT22;30191;50.908;6.962;2022-12-29T17:43:13;10.80;99.90
44487;DHT22;30191;50.908;6.962;2022-12-29T17:45:40;10.80;99.90
44487;DHT22;30191;50.908;6.962;2022-12-29T17:48:13;10.70;99.90
44487;DHT22;30191;50.908;6.962;2022-12-29T17:50:40;10.70;99.90
44487;DHT22;30191;50.908;6.962;2022-12-29T17:53:10;10.70;99.90
44487;DHT22;30191;50.908;6.962;2022-12-29T17:55:37;10.70;99.90
44487;DHT22;30191;50.908;6.962;2022-12-29T18:00:42;10.70;99.90
44487;DHT22;30191;50.908;6.962;2022-12-29T18:03:35;10.60;99.90
44487;DHT22;30191;50.908;6.962;2022-12-29T18:05:59;10.60;99.90
44487;DHT22;30191;50.908;6.962;2022-12-29T18:08:25;10.60;99.90